Time;durP1;ratioP1;P1;durP2;ratioP2;P2;SDS_P1;SDS_P2;PMS_P1;PMS_P2;Temp;Humidity;BMP_temperature;BMP_pressure;BME280_temperature;BME280_humidity;BME280_pressure;Samples;Min_cycle;Max_cycle;Signal;HPM_P1;HPM_P2
2023/01/23 00:01:18;;;;;;;4.30;2.50;;;3.60;99.90;;;;;;5091415;28;20047;-79
2023/01/23 00:03:44;;;;;;;8.77;3.80;;;3.60;99.90;;;;;;5090125;28;20043;-79
2023/01/23 00:06:12;;;;;;;6.88;2.83;;;3.60;99.90;;;;;;5091547;28;20047;-79
2023/01/23 00:08:39;;;;;;;4.30;3.65;;;3.50;99.90;;;;;;5090882;28;20592;-76
2023/01/23 00:11:06;;;;;;;4.28;2.88;;;3.60;99.90;;;;;;5091509;28;20043;-79
2023/01/23 00:13:33;;;;;;;3.42;1.92;;;3.60;99.90;;;;;;5091684;28;20059;-79
2023/01/23 00:16:23;;;;;;;3.55;1.75;;;3.60;99.90;;;;;;5090767;28;20044;-79
2023/01/23 00:18:49;;;;;;;3.60;2.28;;;3.60;99.90;;;;;;5089167;28;20052;-79
2023/01/23 00:21:17;;;;;;;4.25;3.58;;;3.60;99.90;;;;;;5090965;28;20079;-79
2023/01/23 00:23:45;;;;;;;4.75;2.67;;;3.50;99.90;;;;;;5091000;28;20044;-79
2023/01/23 00:26:14;;;;;;;20.38;2.92;;;3.50;99.90;;;;;;5091096;28;20029;-79
2023/01/23 00:28:41;;;;;;;5.00;2.00;;;3.50;99.90;;;;;;5090825;28;20127;-77
2023/01/23 00:31:16;;;;;;;6.93;3.25;;;3.50;99.90;;;;;;5089814;28;20109;-79
2023/01/23 00:33:43;;;;;;;8.15;2.83;;;3.60;99.90;;;;;;5089728;28;20051;-79
2023/01/23 00:36:09;;;;;;;8.77;4.50;;;3.60;99.90;;;;;;5090966;28;20039;-79
2023/01/23 00:38:35;;;;;;;4.38;2.78;;;3.50;99.90;;;;;;5090750;28;20040;-79
2023/01/23 00:41:01;;;;;;;2.38;2.17;;;3.50;99.90;;;;;;5091279;28;20047;-76
2023/01/23 00:43:27;;;;;;;4.60;3.17;;;3.60;99.90;;;;;;5090674;28;20078;-80
2023/01/23 00:45:53;;;;;;;2.78;2.45;;;3.50;99.90;;;;;;5088667;28;20101;-76
2023/01/23 00:48:18;;;;;;;2.72;2.08;;;3.60;99.90;;;;;;5071890;28;20429;-79
2023/01/23 00:50:44;;;;;;;9.27;3.40;;;3.60;99.90;;;;;;5090149;28;20044;-79
2023/01/23 00:53:11;;;;;;;4.65;3.67;;;3.60;99.90;;;;;;5090525;28;20043;-77
2023/01/23 00:55:37;;;;;;;8.25;2.85;;;3.60;99.90;;;;;;5090270;28;20043;-79
2023/01/23 00:58:03;;;;;;;2.55;1.88;;;3.50;99.90;;;;;;5090835;28;20040;-79
2023/01/23 01:00:29;;;;;;;9.35;2.90;;;3.50;99.90;;;;;;5089791;28;20103;-79
2023/01/23 01:02:54;;;;;;;6.28;3.08;;;3.60;99.90;;;;;;5089387;28;20048;-79
2023/01/23 01:05:20;;;;;;;11.63;3.55;;;3.60;99.90;;;;;;5088548;28;20562;-79
2023/01/23 01:07:46;;;;;;;5.32;2.83;;;3.50;99.90;;;;;;5090173;28;20040;-80
2023/01/23 01:10:12;;;;;;;9.68;3.85;;;3.60;99.90;;;;;;5090188;28;20499;-80
2023/01/23 01:12:38;;;;;;;9.50;3.03;;;3.60;99.90;;;;;;5089930;28;20036;-79
2023/01/23 01:15:05;;;;;;;7.32;3.28;;;3.60;99.90;;;;;;5090418;28;20055;-78
2023/01/23 01:17:30;;;;;;;3.53;2.83;;;3.50;99.90;;;;;;5089423;28;20091;-79
2023/01/23 01:19:56;;;;;;;5.07;2.90;;;3.50;99.90;;;;;;5089903;28;20072;-79
2023/01/23 01:22:22;;;;;;;4.20;3.35;;;3.50;99.90;;;;;;5089984;28;20111;-79
2023/01/23 01:24:47;;;;;;;7.00;4.18;;;3.50;99.90;;;;;;5089546;28;20044;-79
2023/01/23 01:27:13;;;;;;;7.32;3.92;;;3.60;99.90;;;;;;5089923;28;20080;-76
2023/01/23 01:29:38;;;;;;;5.45;3.22;;;3.50;99.90;;;;;;5089418;28;20076;-79
2023/01/23 01:32:04;;;;;;;4.68;2.55;;;3.50;99.90;;;;;;5090041;28;20044;-79
2023/01/23 01:34:30;;;;;;;3.88;3.38;;;3.50;99.90;;;;;;5089058;28;20058;-76
2023/01/23 01:36:55;;;;;;;6.65;3.20;;;3.50;99.90;;;;;;5089523;28;20483;-79
2023/01/23 01:39:21;;;;;;;3.90;3.20;;;3.50;99.90;;;;;;5089549;28;20044;-78
2023/01/23 01:41:47;;;;;;;12.73;4.40;;;3.50;99.90;;;;;;5089399;28;20036;-80
2023/01/23 01:44:21;;;;;;;4.40;3.63;;;3.50;99.90;;;;;;5089353;28;20427;-79
2023/01/23 01:46:47;;;;;;;4.38;3.50;;;3.50;99.90;;;;;;5089042;28;20508;-79
2023/01/23 01:49:19;;;;;;;9.48;3.03;;;3.50;99.90;;;;;;5088448;28;20107;-79
2023/01/23 01:52:01;;;;;;;3.80;3.50;;;3.50;99.90;;;;;;5088906;28;20040;-79
2023/01/23 01:54:41;;;;;;;5.28;3.65;;;3.50;99.90;;;;;;5089321;28;20044;-79
2023/01/23 01:57:15;;;;;;;5.20;4.00;;;3.50;99.90;;;;;;5071281;28;20135;-79
2023/01/23 01:59:51;;;;;;;2.53;2.30;;;3.50;99.90;;;;;;5088830;28;20048;-79
2023/01/23 02:02:24;;;;;;;3.85;3.47;;;3.50;99.90;;;;;;5088283;28;20123;-78
2023/01/23 02:04:54;;;;;;;4.72;4.15;;;3.50;99.90;;;;;;5088835;28;20048;-79
2023/01/23 02:07:45;;;;;;;4.80;3.10;;;3.50;99.90;;;;;;5089122;28;20131;-79
2023/01/23 02:10:12;;;;;;;6.47;4.50;;;3.50;99.90;;;;;;5087710;28;20036;-78
2023/01/23 02:12:38;;;;;;;8.35;4.78;;;3.50;99.90;;;;;;5089165;28;20048;-79
2023/01/23 02:15:06;;;;;;;5.28;4.15;;;3.50;99.90;;;;;;5088017;28;20052;-79
2023/01/23 02:17:34;;;;;;;15.15;4.43;;;3.50;99.90;;;;;;5087450;28;20054;-79
2023/01/23 02:20:08;;;;;;;6.25;4.32;;;3.50;99.90;;;;;;5088858;28;20398;-76
2023/01/23 02:22:56;;;;;;;12.40;6.05;;;3.50;99.90;;;;;;5087550;28;20044;-79
2023/01/23 02:25:32;;;;;;;8.27;4.90;;;3.50;99.90;;;;;;5088753;28;20059;-79
2023/01/23 02:27:58;;;;;;;7.32;4.75;;;3.50;99.90;;;;;;5087410;28;20047;-79
2023/01/23 02:30:24;;;;;;;5.22;4.13;;;3.40;99.90;;;;;;5088826;28;20048;-79
2023/01/23 02:32:49;;;;;;;5.15;3.40;;;3.50;99.90;;;;;;5086889;28;20048;-79
2023/01/23 02:35:26;;;;;;;7.88;5.55;;;3.40;99.90;;;;;;5087250;28;20051;-79
2023/01/23 02:37:55;;;;;;;6.65;5.03;;;3.50;99.90;;;;;;5088477;28;20044;-79
2023/01/23 02:40:35;;;;;;;9.10;4.28;;;3.50;99.90;;;;;;5088325;28;20078;-76
2023/01/23 02:43:05;;;;;;;5.70;4.35;;;3.50;99.90;;;;;;5088681;28;20106;-79
2023/01/23 02:45:31;;;;;;;6.82;4.20;;;3.50;99.90;;;;;;5070573;28;20055;-79
2023/01/23 02:47:57;;;;;;;6.20;5.60;;;3.50;99.90;;;;;;5087506;28;20557;-79
2023/01/23 02:50:22;;;;;;;4.90;3.88;;;3.50;99.90;;;;;;5088049;28;20040;-79
2023/01/23 02:52:50;;;;;;;4.93;3.90;;;3.40;99.90;;;;;;5087901;28;20483;-79
2023/01/23 02:55:16;;;;;;;10.25;4.28;;;3.40;99.90;;;;;;5088371;28;20086;-79
2023/01/23 02:57:44;;;;;;;5.82;4.47;;;3.50;99.90;;;;;;5086601;28;20055;-79
2023/01/23 03:00:19;;;;;;;4.95;2.97;;;3.50;99.90;;;;;;5086844;28;20629;-78
2023/01/23 03:02:49;;;;;;;12.02;4.03;;;3.50;99.90;;;;;;5085828;28;20051;-79
2023/01/23 03:05:16;;;;;;;3.85;3.15;;;3.50;99.90;;;;;;5087904;28;20101;-79
2023/01/23 03:07:41;;;;;;;27.05;4.30;;;3.50;99.90;;;;;;5087866;28;20040;-79
2023/01/23 03:10:09;;;;;;;5.97;3.53;;;3.50;99.90;;;;;;5088168;28;20043;-79
2023/01/23 03:12:36;;;;;;;9.77;3.92;;;3.40;99.90;;;;;;5087828;28;20038;-77
2023/01/23 03:15:04;;;;;;;3.55;2.53;;;3.50;99.90;;;;;;5088386;28;20104;-79
2023/01/23 03:17:31;;;;;;;5.57;4.68;;;3.50;99.90;;;;;;5087602;28;20044;-79
2023/01/23 03:19:57;;;;;;;8.77;3.53;;;3.50;99.90;;;;;;5085782;28;20521;-79
2023/01/23 03:22:22;;;;;;;6.32;3.05;;;3.50;99.90;;;;;;5088011;28;20040;-79
2023/01/23 03:24:48;;;;;;;4.15;2.88;;;3.50;99.90;;;;;;5087810;28;20150;-79
2023/01/23 03:27:14;;;;;;;4.32;3.17;;;3.50;99.90;;;;;;5087920;28;20145;-79
2023/01/23 03:32:24;;;;;;;5.32;2.97;;;3.50;99.90;;;;;;5086439;28;20097;-79
2023/01/23 03:34:50;;;;;;;6.28;3.00;;;3.40;99.90;;;;;;5087286;28;20055;-76
2023/01/23 03:37:18;;;;;;;8.85;4.05;;;3.40;99.90;;;;;;5087890;28;20040;-79
2023/01/23 03:42:28;;;;;;;6.28;4.15;;;3.50;99.90;;;;;;5087338;28;20054;-76
2023/01/23 03:44:54;;;;;;;7.18;5.72;;;3.40;99.90;;;;;;5086815;28;20052;-79
2023/01/23 03:47:20;;;;;;;5.70;4.28;;;3.50;99.90;;;;;;5085663;28;20044;-78
2023/01/23 03:49:46;;;;;;;8.88;4.10;;;3.40;99.90;;;;;;5087271;28;20036;-79
2023/01/23 03:52:11;;;;;;;10.02;3.50;;;3.40;99.90;;;;;;5085750;28;20400;-79
2023/01/23 03:54:37;;;;;;;4.82;3.38;;;3.40;99.90;;;;;;5087177;28;20487;-79
2023/01/23 03:57:03;;;;;;;9.55;3.65;;;3.40;99.90;;;;;;5086647;28;20044;-78
2023/01/23 03:59:28;;;;;;;9.75;4.63;;;3.40;99.90;;;;;;5087359;28;20512;-79
2023/01/23 04:01:54;;;;;;;3.55;3.17;;;3.40;99.90;;;;;;5084804;28;20496;-79
2023/01/23 04:04:20;;;;;;;6.47;4.60;;;3.40;99.90;;;;;;5087508;28;20036;-79
2023/01/23 04:06:45;;;;;;;6.35;4.05;;;3.40;99.90;;;;;;5086943;28;20040;-79
2023/01/23 04:09:11;;;;;;;8.70;2.30;;;3.40;99.90;;;;;;5086403;28;20084;-78
2023/01/23 04:11:37;;;;;;;22.25;4.68;;;3.40;99.90;;;;;;5085925;28;20120;-79
2023/01/23 04:14:03;;;;;;;9.82;4.20;;;3.40;99.90;;;;;;5087305;28;20128;-79
2023/01/23 04:16:28;;;;;;;6.53;3.63;;;3.50;99.90;;;;;;5087282;28;20059;-78
2023/01/23 04:18:54;;;;;;;4.28;3.00;;;3.40;99.90;;;;;;5086370;28;20547;-79
2023/01/23 04:21:20;;;;;;;5.53;3.70;;;3.40;99.90;;;;;;5087167;28;20055;-79
2023/01/23 04:23:45;;;;;;;6.40;3.80;;;3.40;99.90;;;;;;5086812;28;20101;-77
2023/01/23 04:26:11;;;;;;;5.60;3.38;;;3.40;99.90;;;;;;5085903;28;20503;-79
2023/01/23 04:28:37;;;;;;;8.18;4.68;;;3.40;99.90;;;;;;5086932;28;20044;-79
2023/01/23 04:31:03;;;;;;;4.82;2.88;;;3.40;99.90;;;;;;5087808;28;20073;-79
2023/01/23 04:33:28;;;;;;;4.38;3.22;;;3.40;99.90;;;;;;5086128;28;20399;-78
2023/01/23 04:36:02;;;;;;;5.70;3.03;;;3.40;99.90;;;;;;5085883;28;20051;-77
2023/01/23 04:38:29;;;;;;;3.55;3.00;;;3.40;99.90;;;;;;5086029;28;20129;-79
2023/01/23 04:40:55;;;;;;;5.15;3.58;;;3.40;99.90;;;;;;5087973;28;20047;-79
2023/01/23 04:43:21;;;;;;;6.15;3.42;;;3.40;99.90;;;;;;5090798;28;20055;-79
2023/01/23 04:45:52;;;;;;;4.43;3.67;;;3.40;99.90;;;;;;5090477;28;20044;-79
2023/01/23 04:48:18;;;;;;;7.05;4.18;;;3.40;99.90;;;;;;5089864;28;20411;-79
2023/01/23 04:50:44;;;;;;;4.88;3.15;;;3.40;99.90;;;;;;5090463;28;20040;-79
2023/01/23 04:53:10;;;;;;;5.88;3.00;;;3.40;99.90;;;;;;5090236;28;20040;-79
2023/01/23 04:55:35;;;;;;;5.00;3.97;;;3.40;99.90;;;;;;5090478;28;20062;-78
2023/01/23 04:58:01;;;;;;;7.78;4.07;;;3.40;99.90;;;;;;5090885;28;20032;-79
2023/01/23 05:00:28;;;;;;;8.05;2.70;;;3.40;99.90;;;;;;5090596;28;20498;-79
2023/01/23 05:02:54;;;;;;;7.40;4.50;;;3.40;99.90;;;;;;5089446;28;20040;-79
2023/01/23 05:05:21;;;;;;;3.90;2.63;;;3.40;99.90;;;;;;5089409;28;20040;-76
2023/01/23 05:07:48;;;;;;;6.32;3.65;;;3.40;99.90;;;;;;5089749;28;20084;-79
2023/01/23 05:10:15;;;;;;;5.05;3.25;;;3.40;99.90;;;;;;5089071;28;20115;-79
2023/01/23 05:12:41;;;;;;;7.50;4.93;;;3.40;99.90;;;;;;5089922;28;20044;-78
2023/01/23 05:15:08;;;;;;;6.93;4.43;;;3.40;99.90;;;;;;5090203;28;20044;-78
2023/01/23 05:17:33;;;;;;;4.60;3.42;;;3.40;99.90;;;;;;5089643;28;20072;-79
2023/01/23 05:19:59;;;;;;;4.78;3.50;;;3.40;99.90;;;;;;5089352;28;20452;-79
2023/01/23 05:22:24;;;;;;;4.20;3.40;;;3.40;99.90;;;;;;5088265;28;20180;-79
2023/01/23 05:24:50;;;;;;;6.78;3.85;;;3.40;99.90;;;;;;5089083;28;20491;-79
2023/01/23 05:27:16;;;;;;;7.30;4.78;;;3.40;99.90;;;;;;5089545;28;20047;-78
2023/01/23 05:29:42;;;;;;;6.93;4.35;;;3.40;99.90;;;;;;5088199;28;20048;-76
2023/01/23 05:32:07;;;;;;;9.05;3.80;;;3.40;99.90;;;;;;5089011;28;20491;-78
2023/01/23 05:34:33;;;;;;;6.68;4.32;;;3.40;99.90;;;;;;5090028;28;20113;-78
2023/01/23 05:36:58;;;;;;;3.97;3.13;;;3.40;99.90;;;;;;5089411;28;20426;-77
2023/01/23 05:39:24;;;;;;;12.88;5.03;;;3.40;99.90;;;;;;5088458;28;20054;-78
2023/01/23 05:41:50;;;;;;;8.38;3.90;;;3.40;99.90;;;;;;5088060;28;20036;-78
2023/01/23 05:44:15;;;;;;;9.98;3.17;;;3.40;99.90;;;;;;5089472;28;20112;-77
2023/01/23 05:46:41;;;;;;;7.32;4.82;;;3.40;99.90;;;;;;5088566;28;20051;-78
2023/01/23 05:49:06;;;;;;;5.57;3.70;;;3.40;99.90;;;;;;5089494;28;20048;-78
2023/01/23 05:51:32;;;;;;;6.30;4.82;;;3.40;99.90;;;;;;5089561;28;20059;-79
2023/01/23 05:54:02;;;;;;;7.50;5.13;;;3.40;99.90;;;;;;5088981;28;20102;-79
2023/01/23 05:56:27;;;;;;;3.70;2.80;;;3.30;99.90;;;;;;5089604;28;20246;-77
2023/01/23 05:58:53;;;;;;;10.57;4.07;;;3.30;99.90;;;;;;5088759;28;20036;-79
2023/01/23 06:01:19;;;;;;;5.45;4.20;;;3.30;99.90;;;;;;5087655;28;20036;-78
2023/01/23 06:03:45;;;;;;;10.85;4.63;;;3.30;99.90;;;;;;5087395;28;20388;-78
2023/01/23 06:06:10;;;;;;;11.82;4.85;;;3.30;99.90;;;;;;5088969;28;20028;-79
2023/01/23 06:08:36;;;;;;;6.70;5.28;;;3.30;99.90;;;;;;5088570;28;20102;-79
2023/01/23 06:11:02;;;;;;;5.28;4.30;;;3.30;99.90;;;;;;5087112;28;20039;-78
2023/01/23 06:13:28;;;;;;;3.75;3.45;;;3.30;99.90;;;;;;5088522;28;20549;-78
2023/01/23 06:15:54;;;;;;;8.95;4.65;;;3.30;99.90;;;;;;5088584;28;20051;-79
2023/01/23 06:18:20;;;;;;;9.07;4.03;;;3.30;99.90;;;;;;5087268;28;20090;-79
2023/01/23 06:20:46;;;;;;;5.82;4.88;;;3.30;99.90;;;;;;5087915;28;20097;-79
2023/01/23 06:23:12;;;;;;;6.55;5.68;;;3.30;99.90;;;;;;5088927;28;20515;-77
2023/01/23 06:25:38;;;;;;;8.43;3.90;;;3.30;99.90;;;;;;5088855;28;20482;-80
2023/01/23 06:28:04;;;;;;;8.05;5.38;;;3.30;99.90;;;;;;5086790;28;20476;-79
2023/01/23 06:30:29;;;;;;;9.85;5.30;;;3.30;99.90;;;;;;5084390;28;20449;-78
2023/01/23 06:32:55;;;;;;;7.72;5.05;;;3.30;99.90;;;;;;5085631;28;20083;-79
2023/01/23 06:35:21;;;;;;;5.80;4.53;;;3.30;99.90;;;;;;5089254;28;20130;-79
2023/01/23 06:37:46;;;;;;;9.27;5.43;;;3.30;99.90;;;;;;5086249;28;20111;-78
2023/01/23 06:40:13;;;;;;;7.85;5.28;;;3.30;99.90;;;;;;5087938;28;20379;-79
2023/01/23 06:42:42;;;;;;;7.10;4.53;;;3.30;99.90;;;;;;5088119;28;20047;-79
2023/01/23 06:45:09;;;;;;;6.82;4.55;;;3.30;99.90;;;;;;5084140;28;20484;-78
2023/01/23 06:47:35;;;;;;;9.13;4.40;;;3.30;99.90;;;;;;5087550;28;20044;-77
2023/01/23 06:50:01;;;;;;;15.35;5.55;;;3.30;99.90;;;;;;5070732;28;20515;-79
2023/01/23 06:52:28;;;;;;;9.27;4.95;;;3.20;99.90;;;;;;5089966;28;20048;-78
2023/01/23 06:54:53;;;;;;;9.85;5.50;;;3.30;99.90;;;;;;5086747;28;20402;-79
2023/01/23 06:57:20;;;;;;;5.78;5.15;;;3.20;99.90;;;;;;5087620;28;20040;-79
2023/01/23 06:59:45;;;;;;;5.70;4.55;;;3.20;99.90;;;;;;5087138;28;20036;-77
2023/01/23 07:02:11;;;;;;;7.28;5.32;;;3.20;99.90;;;;;;5085189;28;20062;-79
2023/01/23 07:04:37;;;;;;;7.05;4.72;;;3.20;99.90;;;;;;5085994;28;20517;-79
2023/01/23 07:07:03;;;;;;;8.50;4.60;;;3.20;99.90;;;;;;5086153;28;20086;-78
2023/01/23 07:09:29;;;;;;;6.80;4.28;;;3.10;99.90;;;;;;5086343;28;20036;-79
2023/01/23 07:11:54;;;;;;;9.68;5.15;;;3.20;99.90;;;;;;5086553;28;20695;-76
2023/01/23 07:14:20;;;;;;;6.68;4.75;;;3.10;99.90;;;;;;5084786;28;20039;-78
2023/01/23 07:16:46;;;;;;;7.70;5.13;;;3.10;99.90;;;;;;5085313;28;20522;-78
2023/01/23 07:19:12;;;;;;;11.38;7.43;;;3.10;99.90;;;;;;5086335;28;20044;-78
2023/01/23 07:21:37;;;;;;;9.15;5.80;;;3.10;99.90;;;;;;5086983;28;20069;-79
2023/01/23 07:24:03;;;;;;;8.30;5.25;;;3.10;99.90;;;;;;5088172;28;20129;-78
2023/01/23 07:26:29;;;;;;;9.30;6.35;;;3.00;99.90;;;;;;5088127;28;20079;-78
2023/01/23 07:28:54;;;;;;;6.32;5.40;;;3.00;99.90;;;;;;5087164;28;20122;-79
2023/01/23 07:31:20;;;;;;;17.10;6.13;;;3.00;99.90;;;;;;5086821;28;20036;-76
2023/01/23 07:33:46;;;;;;;9.35;5.97;;;2.90;99.90;;;;;;5087394;28;20141;-78
2023/01/23 07:36:13;;;;;;;8.65;5.45;;;2.90;99.90;;;;;;5086198;28;20062;-81
2023/01/23 07:38:39;;;;;;;12.65;7.45;;;2.90;99.90;;;;;;5087462;28;20048;-79
2023/01/23 07:41:05;;;;;;;12.13;6.68;;;2.90;99.90;;;;;;5087077;28;20066;-79
2023/01/23 07:43:31;;;;;;;10.00;6.68;;;3.00;99.90;;;;;;5087060;28;20048;-79
2023/01/23 07:46:00;;;;;;;10.25;7.55;;;2.90;99.90;;;;;;5084725;28;20134;-80
2023/01/23 07:48:26;;;;;;;17.70;6.93;;;2.90;99.90;;;;;;5086125;28;20032;-80
2023/01/23 07:50:52;;;;;;;7.05;4.85;;;3.00;99.90;;;;;;5087007;28;20040;-77
2023/01/23 07:53:18;;;;;;;9.98;7.65;;;3.00;99.90;;;;;;5086301;28;20392;-79
2023/01/23 07:55:44;;;;;;;9.75;6.80;;;3.10;99.90;;;;;;5076692;28;20033;-80
2023/01/23 07:58:09;;;;;;;11.88;8.27;;;3.10;99.90;;;;;;5085133;28;20028;-85
2023/01/23 08:00:35;;;;;;;9.65;6.05;;;3.10;99.90;;;;;;5086996;28;20152;-87
2023/01/23 08:03:00;;;;;;;12.35;7.78;;;3.10;99.90;;;;;;5084831;28;20438;-85
2023/01/23 08:05:26;;;;;;;8.98;7.20;;;3.10;99.90;;;;;;5087028;28;20402;-81
2023/01/23 08:07:52;;;;;;;10.60;7.18;;;3.10;99.90;;;;;;5086386;28;20048;-87
2023/01/23 08:10:18;;;;;;;11.40;8.93;;;3.10;99.90;;;;;;5087019;28;20036;-83
2023/01/23 08:12:43;;;;;;;9.07;5.28;;;3.10;99.90;;;;;;5085165;28;20514;-83
2023/01/23 08:15:09;;;;;;;12.23;7.13;;;3.20;99.90;;;;;;5086658;28;20040;-83
2023/01/23 08:17:35;;;;;;;16.85;8.43;;;3.20;99.90;;;;;;5087165;28;20052;-83
2023/01/23 08:20:00;;;;;;;10.52;6.45;;;3.20;99.90;;;;;;5089627;28;20047;-88
2023/01/23 08:22:26;;;;;;;9.45;6.47;;;3.20;99.90;;;;;;5089850;28;20032;-81
2023/01/23 08:24:52;;;;;;;8.20;7.20;;;3.20;99.90;;;;;;5090000;28;20112;-88
2023/01/23 08:27:17;;;;;;;12.38;8.93;;;3.20;99.90;;;;;;5088415;28;20511;-86
2023/01/23 08:29:43;;;;;;;10.00;6.50;;;3.20;99.90;;;;;;5090647;28;20044;-85
2023/01/23 08:32:09;;;;;;;12.88;6.95;;;3.20;99.90;;;;;;5087421;28;20532;-80
2023/01/23 08:34:34;;;;;;;13.43;8.57;;;3.20;99.90;;;;;;5088097;28;20124;-79
2023/01/23 08:37:00;;;;;;;8.82;7.00;;;3.20;99.90;;;;;;5083706;28;20683;-83
2023/01/23 08:39:26;;;;;;;10.70;7.05;;;3.30;99.90;;;;;;5082456;28;20301;-83
2023/01/23 08:41:51;;;;;;;13.30;7.00;;;3.30;99.90;;;;;;5094382;28;20460;-88
2023/01/23 08:44:17;;;;;;;15.50;7.75;;;3.30;99.90;;;;;;5098018;28;20059;-84
2023/01/23 08:46:44;;;;;;;8.52;6.22;;;3.30;99.90;;;;;;5087906;28;20086;-86
2023/01/23 08:49:10;;;;;;;9.57;6.65;;;3.30;99.90;;;;;;5089032;28;20032;-82
2023/01/23 08:51:35;;;;;;;10.98;6.82;;;3.30;99.90;;;;;;5089323;28;20074;-85
2023/01/23 08:54:01;;;;;;;12.98;8.02;;;3.30;99.90;;;;;;5089197;28;20044;-81
2023/01/23 08:56:27;;;;;;;8.95;7.50;;;3.30;99.90;;;;;;5089949;28;20038;-82
2023/01/23 08:58:52;;;;;;;14.13;8.50;;;3.30;99.90;;;;;;5088712;28;20055;-82
2023/01/23 09:01:21;;;;;;;10.60;6.63;;;3.30;99.90;;;;;;5088749;28;20036;-82
2023/01/23 09:03:47;;;;;;;11.05;6.90;;;3.30;99.90;;;;;;5088392;28;20047;-80
2023/01/23 09:06:14;;;;;;;12.85;8.38;;;3.40;99.90;;;;;;5089936;28;20040;-82
2023/01/23 09:08:40;;;;;;;13.98;8.43;;;3.40;99.90;;;;;;5088801;28;20039;-82
2023/01/23 09:11:08;;;;;;;10.10;6.38;;;3.40;99.90;;;;;;5089636;28;20552;-83
2023/01/23 09:13:34;;;;;;;14.18;7.63;;;3.40;99.90;;;;;;5088476;28;20040;-82
2023/01/23 09:16:00;;;;;;;9.50;8.48;;;3.40;99.90;;;;;;5087953;28;20509;-80
2023/01/23 09:18:26;;;;;;;12.85;7.32;;;3.40;99.90;;;;;;5088386;28;20058;-81
2023/01/23 09:20:53;;;;;;;9.75;7.10;;;3.50;99.90;;;;;;5088733;28;20677;-81
2023/01/23 09:23:19;;;;;;;12.02;8.45;;;3.40;99.90;;;;;;5088217;28;20036;-81
2023/01/23 09:25:44;;;;;;;15.68;9.68;;;3.40;99.90;;;;;;5088455;28;20048;-81
2023/01/23 09:28:10;;;;;;;13.50;6.20;;;3.50;99.90;;;;;;5087970;28;20411;-81
2023/01/23 09:30:36;;;;;;;11.38;8.13;;;3.50;99.90;;;;;;5088294;28;20143;-81
2023/01/23 09:33:02;;;;;;;8.45;6.43;;;3.50;99.90;;;;;;5087737;28;20044;-81
2023/01/23 09:35:28;;;;;;;11.32;7.47;;;3.50;99.90;;;;;;5088189;28;20044;-81
2023/01/23 09:37:59;;;;;;;16.13;7.75;;;3.50;99.90;;;;;;5088527;28;20093;-81
2023/01/23 09:40:28;;;;;;;11.77;7.85;;;3.50;99.90;;;;;;5088389;28;20040;-81
2023/01/23 09:42:59;;;;;;;9.07;6.25;;;3.50;99.90;;;;;;5087444;28;20039;-80
2023/01/23 09:45:27;;;;;;;9.32;6.63;;;3.50;99.90;;;;;;5069639;28;20188;-81
2023/01/23 09:48:14;;;;;;;14.75;7.35;;;3.50;99.90;;;;;;5087232;28;20055;-81
2023/01/23 09:50:59;;;;;;;9.38;7.57;;;3.50;99.90;;;;;;5081323;28;20442;-81
2023/01/23 09:53:30;;;;;;;12.95;9.48;;;3.60;99.90;;;;;;5086744;28;20491;-80
2023/01/23 09:56:10;;;;;;;14.55;7.95;;;3.60;99.90;;;;;;5086404;28;20044;-80
2023/01/23 09:59:17;;;;;;;11.15;7.60;;;3.60;99.90;;;;;;5085678;28;20116;-81
2023/01/23 10:01:43;;;;;;;13.45;8.32;;;3.60;99.90;;;;;;5071347;28;20127;-81
2023/01/23 10:04:11;;;;;;;14.93;6.85;;;3.60;99.90;;;;;;5087648;28;20154;-81
2023/01/23 10:07:11;;;;;;;9.98;7.20;;;3.70;99.90;;;;;;5085742;28;20128;-81
2023/01/23 10:09:52;;;;;;;12.00;7.35;;;3.60;99.90;;;;;;5087004;28;20048;-80
2023/01/23 10:12:35;;;;;;;12.10;5.03;;;3.70;99.90;;;;;;5087517;28;20040;-81
2023/01/23 10:15:23;;;;;;;9.88;6.70;;;3.70;99.90;;;;;;5087103;28;20048;-81
2023/01/23 10:17:51;;;;;;;10.32;6.68;;;3.70;99.90;;;;;;5084174;28;20040;-80
2023/01/23 10:20:29;;;;;;;11.20;6.45;;;3.70;99.90;;;;;;5086477;28;20126;-84
2023/01/23 10:22:57;;;;;;;11.88;6.72;;;3.70;99.90;;;;;;5084402;28;20052;-82
2023/01/23 10:25:31;;;;;;;9.23;5.85;;;3.70;99.90;;;;;;5088077;28;20040;-84
2023/01/23 10:28:11;;;;;;;10.32;7.45;;;3.80;99.90;;;;;;5087757;28;20048;-82
2023/01/23 10:30:40;;;;;;;10.70;5.95;;;3.80;99.90;;;;;;5083640;28;20040;-82
2023/01/23 10:33:16;;;;;;;7.53;6.18;;;3.80;99.90;;;;;;5087086;28;20043;-83
2023/01/23 10:35:53;;;;;;;15.70;7.70;;;3.80;99.90;;;;;;5082783;28;20100;-86
2023/01/23 10:38:18;;;;;;;13.88;8.30;;;3.80;99.90;;;;;;5079737;28;20036;-81
2023/01/23 10:43:31;;;;;;;7.47;5.53;;;3.90;99.90;;;;;;5088183;28;20056;-81
2023/01/23 10:45:56;;;;;;;6.10;5.03;;;3.90;99.90;;;;;;5086359;28;20373;-81
2023/01/23 10:48:44;;;;;;;5.22;4.35;;;3.90;99.90;;;;;;5088152;28;20036;-81
2023/01/23 10:51:26;;;;;;;5.95;4.20;;;4.00;99.90;;;;;;5069768;28;20052;-81
2023/01/23 10:54:17;;;;;;;9.02;4.93;;;4.00;99.90;;;;;;5086757;28;20077;-81
2023/01/23 10:57:00;;;;;;;9.45;4.60;;;4.00;99.90;;;;;;5075193;28;20040;-85
2023/01/23 10:59:31;;;;;;;8.85;4.28;;;4.00;99.90;;;;;;5085552;28;20040;-83
2023/01/23 11:02:00;;;;;;;6.05;3.38;;;4.10;99.90;;;;;;5084816;28;20066;-83
2023/01/23 11:04:29;;;;;;;20.08;5.28;;;4.10;99.90;;;;;;5087610;28;20492;-81
2023/01/23 11:07:14;;;;;;;8.55;5.50;;;4.10;99.90;;;;;;5087249;28;20044;-81
2023/01/23 11:10:03;;;;;;;5.53;3.70;;;4.10;99.90;;;;;;5083204;28;20063;-81
2023/01/23 11:12:31;;;;;;;4.82;3.70;;;4.20;99.90;;;;;;5087636;28;20048;-81
2023/01/23 11:15:20;;;;;;;6.68;3.58;;;4.20;99.90;;;;;;5087350;28;20069;-81
2023/01/23 11:17:47;;;;;;;5.15;3.85;;;4.20;99.90;;;;;;5083966;28;20032;-86
2023/01/23 11:20:32;;;;;;;7.25;4.05;;;4.20;99.90;;;;;;5087647;28;20093;-90
2023/01/23 11:23:17;;;;;;;3.67;2.72;;;4.30;99.90;;;;;;5086408;28;20115;-85
2023/01/23 11:25:48;;;;;;;6.82;3.35;;;4.30;99.90;;;;;;5087782;28;20489;-85
2023/01/23 11:28:29;;;;;;;5.93;2.85;;;4.30;99.90;;;;;;5087478;28;20133;-83
2023/01/23 11:31:15;;;;;;;4.80;2.70;;;4.30;99.90;;;;;;5085931;28;20115;-85
2023/01/23 11:33:53;;;;;;;4.05;1.83;;;4.30;99.90;;;;;;5099611;28;20057;-89
2023/01/23 11:36:25;;;;;;;2.05;1.95;;;4.30;99.90;;;;;;5088062;28;20039;-86
2023/01/23 11:38:59;;;;;;;1.42;1.33;;;4.30;99.90;;;;;;5084349;28;20039;-83
2023/01/23 11:41:31;;;;;;;3.13;2.65;;;4.40;99.90;;;;;;5086708;28;20052;-90
2023/01/23 11:43:57;;;;;;;1.92;1.77;;;4.40;99.90;;;;;;5087116;28;20051;-90
2023/01/23 11:46:41;;;;;;;6.70;1.42;;;4.30;99.90;;;;;;5066669;28;20047;-86
2023/01/23 11:49:12;;;;;;;1.55;1.45;;;4.40;99.90;;;;;;5085079;28;20044;-80
2023/01/23 11:51:52;;;;;;;1.08;0.93;;;4.40;99.90;;;;;;5089528;28;20142;-80
2023/01/23 11:54:41;;;;;;;1.77;1.45;;;4.40;99.90;;;;;;5090050;28;20055;-80
2023/01/23 11:57:17;;;;;;;2.42;1.80;;;4.40;99.90;;;;;;5090713;28;20064;-81
2023/01/23 12:00:22;;;;;;;1.48;1.38;;;4.40;99.90;;;;;;5090166;28;20392;-79
2023/01/23 12:03:10;;;;;;;2.42;2.22;;;4.40;99.90;;;;;;5089579;28;20051;-79
2023/01/23 12:05:47;;;;;;;2.50;2.17;;;4.40;99.90;;;;;;5084759;28;20036;-79
2023/01/23 12:08:51;;;;;;;2.78;2.33;;;4.40;99.90;;;;;;5091085;28;20040;-79
2023/01/23 12:11:21;;;;;;;2.67;2.47;;;4.40;99.90;;;;;;5090519;28;20120;-79
2023/01/23 12:14:14;;;;;;;2.80;2.13;;;4.50;99.90;;;;;;5089419;28;20040;-79
2023/01/23 12:16:58;;;;;;;2.33;1.27;;;4.40;99.90;;;;;;5087868;28;20491;-79
2023/01/23 12:19:37;;;;;;;2.40;2.20;;;4.50;99.90;;;;;;5090681;28;20388;-79
2023/01/23 12:22:24;;;;;;;3.08;2.22;;;4.40;99.90;;;;;;5071482;28;20041;-80
2023/01/23 12:25:11;;;;;;;1.58;1.20;;;4.50;99.90;;;;;;5086317;28;20047;-79
2023/01/23 12:27:45;;;;;;;1.65;1.05;;;4.40;99.90;;;;;;5087062;28;20044;-78
2023/01/23 12:30:28;;;;;;;7.20;2.17;;;4.40;99.90;;;;;;5089611;28;20556;-80
2023/01/23 12:33:26;;;;;;;1.60;1.42;;;4.50;99.90;;;;;;5074853;28;20046;-80
2023/01/23 12:36:04;;;;;;;1.90;1.67;;;4.50;99.90;;;;;;5074728;28;20461;-80
2023/01/23 12:38:53;;;;;;;1.45;1.35;;;4.50;99.90;;;;;;5089514;28;20097;-80
2023/01/23 12:41:42;;;;;;;2.55;2.28;;;4.50;99.90;;;;;;5071688;28;20044;-80
2023/01/23 12:44:22;;;;;;;2.45;2.08;;;4.50;99.90;;;;;;5088922;28;20048;-80
2023/01/23 12:46:56;;;;;;;2.08;1.35;;;4.50;99.90;;;;;;5087538;28;20496;-80
2023/01/23 12:49:32;;;;;;;2.30;2.10;;;4.50;99.90;;;;;;5088898;28;20071;-80
2023/01/23 12:52:07;;;;;;;3.92;2.33;;;4.50;99.90;;;;;;5090140;28;20043;-80
2023/01/23 12:54:41;;;;;;;1.88;1.70;;;4.50;99.90;;;;;;5090107;28;20396;-80
2023/01/23 12:57:09;;;;;;;1.65;1.52;;;4.50;99.90;;;;;;5088565;28;20040;-80
2023/01/23 12:59:56;;;;;;;4.20;2.47;;;4.50;99.90;;;;;;5089413;28;20075;-81
2023/01/23 13:02:59;;;;;;;2.28;1.95;;;4.50;99.90;;;;;;5088001;28;20051;-80
2023/01/23 13:05:41;;;;;;;2.87;2.67;;;4.50;99.90;;;;;;5050228;28;20063;-79
2023/01/23 13:08:16;;;;;;;;;;;4.50;99.90;;;;;;5070219;28;20314;-81
2023/01/23 13:13:48;;;;;;;3.25;2.65;;;4.40;99.90;;;;;;5076295;28;20185;-80
2023/01/23 13:16:19;;;;;;;2.50;2.30;;;4.50;99.90;;;;;;5088615;28;20072;-80
2023/01/23 13:22:01;;;;;;;4.10;3.38;;;4.50;99.90;;;;;;5086269;28;20188;-80
2023/01/23 13:27:46;;;;;;;6.20;3.05;;;4.50;99.90;;;;;;5087413;28;20052;-82